Coral Mer — V2QO6 — position and weather

sailwx.info

Track history (hours):
 
Tides and Currents Weather Stations Pressure Air Temp Water Temp Dewpoint Dewpoint Depression Visibility Wind Speed Wind Dir Waves Ship Positions

Coral Mer

Last reported at 2018-Feb-14 17:14 UTC. Time now 2018-Feb-23 22:08 UTC.
Position N 43°25' E 004°45'.
Warning: this ship's position is 9 days out of date.

Length 88 m; draft 3 m.

Type: Cargo ship. MMSI: 305972000.

Date/timePositionNaut miles runAvg speedWind from/ knotsBaromVisibWave heightAir tempDewpointWater temp
2018-Feb-14 17:14N 43°25' E 004°45'4 0.3
2018-Feb-14 04:54N 43°23' E 004°48'0 0.0
2018-Feb-13 22:12N 43°23' E 004°48'0 0.1
2018-Feb-13 22:00N 43°23' E 004°48'0 0.2
2018-Feb-13 21:30N 43°23' E 004°48'2 4.3
2018-Feb-13 20:57N 43°23' E 004°52'4 8.6
2018-Feb-13 20:30N 43°23' E 004°57'4 7.4
2018-Feb-13 20:00N 43°20' E 004°59'166 7.7
2018-Feb-12 22:21N 41°21' E 002°21'3 8.4
2018-Feb-12 21:59N 41°20' E 002°18'4 8.6
2018-Feb-12 21:30N 41°17' E 002°13'2 5.0
2018-Feb-12 21:00N 41°18' E 002°10'3 6.9
2018-Feb-12 20:31N 41°22' E 002°10'0 0.0
2018-Feb-12 19:59N 41°22' E 002°10'0 0.0
2018-Feb-12 19:23N 41°22' E 002°10'0 0.0
2018-Feb-12 18:20N 41°22' E 002°10'0 0.0
2018-Feb-12 17:47N 41°22' E 002°10'0 0.0
2018-Feb-12 17:23N 41°22' E 002°10'0 0.0
2018-Feb-12 16:59N 41°22' E 002°10'0 0.0
2018-Feb-12 16:26N 41°22' E 002°10'0 0.0
2018-Feb-12 15:56N 41°22' E 002°10'0 0.0
2018-Feb-12 15:17N 41°22' E 002°10'0 0.0
2018-Feb-12 14:59N 41°22' E 002°10'0 0.0
2018-Feb-12 14:29N 41°22' E 002°10'0 0.0
2018-Feb-12 13:59N 41°22' E 002°10'0 0.0
2018-Feb-12 13:29N 41°22' E 002°10'0 0.0
2018-Feb-12 12:50N 41°22' E 002°10'0 0.0
2018-Feb-12 12:29N 41°22' E 002°10'0 0.0
2018-Feb-12 11:05N 41°22' E 002°10'0 0.1
2018-Feb-12 10:59N 41°22' E 002°10'0 0.0
2018-Feb-12 10:29N 41°22' E 002°10'0 0.0
2018-Feb-12 09:35N 41°22' E 002°10'0 0.0
2018-Feb-12 09:11N 41°22' E 002°10'0 0.0
2018-Feb-12 08:59N 41°22' E 002°10'0 0.0
2018-Feb-12 08:23N 41°22' E 002°10'0 0.0
2018-Feb-12 07:47N 41°22' E 002°10'0 0.0
2018-Feb-12 06:59N 41°22' E 002°10'0 0.0
2018-Feb-12 05:29N 41°22' E 002°10'0 0.0
2018-Feb-12 04:11N 41°22' E 002°10'0 0.0
2018-Feb-12 03:44N 41°22' E 002°10'0 0.0
2018-Feb-12 02:41N 41°22' E 002°10'0 0.0
2018-Feb-12 02:29N 41°22' E 002°10'0 0.0
2018-Feb-12 01:59N 41°22' E 002°10'0 0.0
2018-Feb-12 01:29N 41°22' E 002°10'0 0.0
2018-Feb-12 00:59N 41°22' E 002°10'0 0.0
2018-Feb-11 23:29N 41°22' E 002°10'0 0.0
2018-Feb-11 22:53N 41°22' E 002°10'0 0.0
2018-Feb-11 22:17N 41°22' E 002°10'0 0.0
2018-Feb-11 21:11N 41°22' E 002°10'0 0.0
2018-Feb-11 20:59N 41°22' E 002°10'0 0.0
2018-Feb-11 20:29N 41°22' E 002°10'0 0.0
2018-Feb-11 19:59N 41°22' E 002°10'0 0.0
2018-Feb-11 19:29N 41°22' E 002°10'0 0.0
2018-Feb-11 18:59N 41°22' E 002°10'0 0.0
2018-Feb-11 18:29N 41°22' E 002°10'0 0.0
2018-Feb-11 17:59N 41°22' E 002°10'0 0.0
2018-Feb-11 17:11N 41°22' E 002°10'0 0.1
2018-Feb-11 16:59N 41°22' E 002°10'0 0.0
2018-Feb-11 16:29N 41°22' E 002°10'0 0.0
2018-Feb-11 15:44N 41°22' E 002°10'0 0.0
2018-Feb-11 15:29N 41°22' E 002°10'0 0.0
2018-Feb-11 14:59N 41°22' E 002°10'0 0.0
2018-Feb-11 14:29N 41°22' E 002°10'0 0.0
2018-Feb-11 13:23N 41°22' E 002°10'0 0.0
2018-Feb-11 12:59N 41°22' E 002°10'0 0.0
2018-Feb-11 12:29N 41°22' E 002°10'0 0.0
2018-Feb-11 10:20N 41°22' E 002°10'0 0.0
2018-Feb-11 09:53N 41°22' E 002°10'0 0.0
2018-Feb-11 09:23N 41°22' E 002°10'0 0.0
2018-Feb-11 08:59N 41°22' E 002°10'0 0.0
2018-Feb-11 08:29N 41°22' E 002°10'0 0.0
2018-Feb-11 07:47N 41°22' E 002°10'0 0.0
2018-Feb-11 07:29N 41°22' E 002°10'0 0.0
2018-Feb-11 06:50N 41°22' E 002°10'0 0.0
2018-Feb-11 06:29N 41°22' E 002°10'0 0.0
2018-Feb-11 05:59N 41°22' E 002°10'0 0.6
2018-Feb-11 05:30N 41°21' E 002°10'3 6.5
2018-Feb-11 05:00N 41°18' E 002°11'2 4.3
2018-Feb-11 04:30N 41°18' E 002°13'3 5.7
2018-Feb-11 04:00N 41°19' E 002°17'3 5.2
2018-Feb-11 03:30N 41°21' E 002°20'150 6.0
2018-Feb-10 02:40N 43°18' E 004°25'2 6.7
2018-Feb-10 02:26N 43°18' E 004°27'3 7.1
2018-Feb-10 02:00N 43°18' E 004°32'4 7.2
2018-Feb-10 01:30N 43°18' E 004°36'4 7.1
2018-Feb-10 01:00N 43°18' E 004°41'3 6.9
2018-Feb-10 00:30N 43°18' E 004°46'3 6.7
2018-Feb-10 00:00N 43°18' E 004°51'3 6.4
2018-Feb-09 23:30N 43°18' E 004°55'3 5.8
2018-Feb-09 23:00N 43°20' E 004°58'2 8.9
2018-Feb-09 22:45N 43°22' E 004°58'  
Track history (hours):
 
Tides and Currents Weather Stations Pressure Air Temp Water Temp Dewpoint Dewpoint Depression Visibility Wind Speed Wind Dir Waves Ship Positions

Coral Mer

Last reported at 2018-Feb-14 17:14 UTC. Time now 2018-Feb-23 22:08 UTC.
Position N 43°25' E 004°45'.
Warning: this ship's position is 9 days out of date.

Length 88 m; draft 3 m.

Type: Cargo ship. MMSI: 305972000.

Date/timePositionNaut miles runAvg speedWind from/ knotsBaromVisibWave heightAir tempDewpointWater temp
2018-Feb-14 17:14N 43°25' E 004°45'4 0.3
2018-Feb-14 04:54N 43°23' E 004°48'0 0.0
2018-Feb-13 22:12N 43°23' E 004°48'0 0.1
2018-Feb-13 22:00N 43°23' E 004°48'0 0.2
2018-Feb-13 21:30N 43°23' E 004°48'2 4.3
2018-Feb-13 20:57N 43°23' E 004°52'4 8.6
2018-Feb-13 20:30N 43°23' E 004°57'4 7.4
2018-Feb-13 20:00N 43°20' E 004°59'166 7.7
2018-Feb-12 22:21N 41°21' E 002°21'3 8.4
2018-Feb-12 21:59N 41°20' E 002°18'4 8.6
2018-Feb-12 21:30N 41°17' E 002°13'2 5.0
2018-Feb-12 21:00N 41°18' E 002°10'3 6.9
2018-Feb-12 20:31N 41°22' E 002°10'0 0.0
2018-Feb-12 19:59N 41°22' E 002°10'0 0.0
2018-Feb-12 19:23N 41°22' E 002°10'0 0.0
2018-Feb-12 18:20N 41°22' E 002°10'0 0.0
2018-Feb-12 17:47N 41°22' E 002°10'0 0.0
2018-Feb-12 17:23N 41°22' E 002°10'0 0.0
2018-Feb-12 16:59N 41°22' E 002°10'0 0.0
2018-Feb-12 16:26N 41°22' E 002°10'0 0.0
2018-Feb-12 15:56N 41°22' E 002°10'0 0.0
2018-Feb-12 15:17N 41°22' E 002°10'0 0.0
2018-Feb-12 14:59N 41°22' E 002°10'0 0.0
2018-Feb-12 14:29N 41°22' E 002°10'0 0.0
2018-Feb-12 13:59N 41°22' E 002°10'0 0.0
2018-Feb-12 13:29N 41°22' E 002°10'0 0.0
2018-Feb-12 12:50N 41°22' E 002°10'0 0.0
2018-Feb-12 12:29N 41°22' E 002°10'0 0.0
2018-Feb-12 11:05N 41°22' E 002°10'0 0.1
2018-Feb-12 10:59N 41°22' E 002°10'0 0.0
2018-Feb-12 10:29N 41°22' E 002°10'0 0.0
2018-Feb-12 09:35N 41°22' E 002°10'0 0.0
2018-Feb-12 09:11N 41°22' E 002°10'0 0.0
2018-Feb-12 08:59N 41°22' E 002°10'0 0.0
2018-Feb-12 08:23N 41°22' E 002°10'0 0.0
2018-Feb-12 07:47N 41°22' E 002°10'0 0.0
2018-Feb-12 06:59N 41°22' E 002°10'0 0.0
2018-Feb-12 05:29N 41°22' E 002°10'0 0.0
2018-Feb-12 04:11N 41°22' E 002°10'0 0.0
2018-Feb-12 03:44N 41°22' E 002°10'0 0.0
2018-Feb-12 02:41N 41°22' E 002°10'0 0.0
2018-Feb-12 02:29N 41°22' E 002°10'0 0.0
2018-Feb-12 01:59N 41°22' E 002°10'0 0.0
2018-Feb-12 01:29N 41°22' E 002°10'0 0.0
2018-Feb-12 00:59N 41°22' E 002°10'0 0.0
2018-Feb-11 23:29N 41°22' E 002°10'0 0.0
2018-Feb-11 22:53N 41°22' E 002°10'0 0.0
2018-Feb-11 22:17N 41°22' E 002°10'0 0.0
2018-Feb-11 21:11N 41°22' E 002°10'0 0.0
2018-Feb-11 20:59N 41°22' E 002°10'0 0.0
2018-Feb-11 20:29N 41°22' E 002°10'0 0.0
2018-Feb-11 19:59N 41°22' E 002°10'0 0.0
2018-Feb-11 19:29N 41°22' E 002°10'0 0.0
2018-Feb-11 18:59N 41°22' E 002°10'0 0.0
2018-Feb-11 18:29N 41°22' E 002°10'0 0.0
2018-Feb-11 17:59N 41°22' E 002°10'0 0.0
2018-Feb-11 17:11N 41°22' E 002°10'0 0.1
2018-Feb-11 16:59N 41°22' E 002°10'0 0.0
2018-Feb-11 16:29N 41°22' E 002°10'0 0.0
2018-Feb-11 15:44N 41°22' E 002°10'0 0.0
2018-Feb-11 15:29N 41°22' E 002°10'0 0.0
2018-Feb-11 14:59N 41°22' E 002°10'0 0.0
2018-Feb-11 14:29N 41°22' E 002°10'0 0.0
2018-Feb-11 13:23N 41°22' E 002°10'0 0.0
2018-Feb-11 12:59N 41°22' E 002°10'0 0.0
2018-Feb-11 12:29N 41°22' E 002°10'0 0.0
2018-Feb-11 10:20N 41°22' E 002°10'0 0.0
2018-Feb-11 09:53N 41°22' E 002°10'0 0.0
2018-Feb-11 09:23N 41°22' E 002°10'0 0.0
2018-Feb-11 08:59N 41°22' E 002°10'0 0.0
2018-Feb-11 08:29N 41°22' E 002°10'0 0.0
2018-Feb-11 07:47N 41°22' E 002°10'0 0.0
2018-Feb-11 07:29N 41°22' E 002°10'0 0.0
2018-Feb-11 06:50N 41°22' E 002°10'0 0.0
2018-Feb-11 06:29N 41°22' E 002°10'0 0.0
2018-Feb-11 05:59N 41°22' E 002°10'0 0.6
2018-Feb-11 05:30N 41°21' E 002°10'3 6.5
2018-Feb-11 05:00N 41°18' E 002°11'2 4.3
2018-Feb-11 04:30N 41°18' E 002°13'3 5.7
2018-Feb-11 04:00N 41°19' E 002°17'3 5.2
2018-Feb-11 03:30N 41°21' E 002°20'150 6.0
2018-Feb-10 02:40N 43°18' E 004°25'2 6.7
2018-Feb-10 02:26N 43°18' E 004°27'3 7.1
2018-Feb-10 02:00N 43°18' E 004°32'4 7.2
2018-Feb-10 01:30N 43°18' E 004°36'4 7.1
2018-Feb-10 01:00N 43°18' E 004°41'3 6.9
2018-Feb-10 00:30N 43°18' E 004°46'3 6.7
2018-Feb-10 00:00N 43°18' E 004°51'3 6.4
2018-Feb-09 23:30N 43°18' E 004°55'3 5.8
2018-Feb-09 23:00N 43°20' E 004°58'2 8.9
2018-Feb-09 22:45N 43°22' E 004°58'  

Dump ship's entire track history